sensor_id;sensor_type;location;lat;lon;timestamp;pressure;altitude;pressure_sealevel;temperature;humidity
62544;BME280;48597;49.030;1.822;2023-09-19T00:01:06;100581.44;;;24.66;52.18
62544;BME280;48597;49.030;1.822;2023-09-19T00:03:34;100582.72;;;24.65;52.10
62544;BME280;48597;49.030;1.822;2023-09-19T00:06:03;100588.47;;;24.65;52.18
62544;BME280;48597;49.030;1.822;2023-09-19T00:08:28;100588.97;;;24.63;52.32
62544;BME280;48597;49.030;1.822;2023-09-19T00:10:54;100589.75;;;24.64;52.19
62544;BME280;48597;49.030;1.822;2023-09-19T00:13:20;100593.94;;;24.63;52.28
62544;BME280;48597;49.030;1.822;2023-09-19T00:15:47;100591.03;;;24.63;52.09
62544;BME280;48597;49.030;1.822;2023-09-19T00:18:16;100590.25;;;24.62;52.08
62544;BME280;48597;49.030;1.822;2023-09-19T00:20:44;100591.53;;;24.61;52.01
62544;BME280;48597;49.030;1.822;2023-09-19T00:23:13;100592.31;;;24.62;52.20
62544;BME280;48597;49.030;1.822;2023-09-19T00:25:39;100588.66;;;24.61;52.04
62544;BME280;48597;49.030;1.822;2023-09-19T00:28:05;100591.53;;;24.61;52.06
62544;BME280;48597;49.030;1.822;2023-09-19T00:30:34;100590.72;;;24.61;52.25
62544;BME280;48597;49.030;1.822;2023-09-19T00:32:59;100596.50;;;24.61;52.18
62544;BME280;48597;49.030;1.822;2023-09-19T00:35:26;100598.59;;;24.60;52.25
62544;BME280;48597;49.030;1.822;2023-09-19T00:37:53;100594.09;;;24.59;52.24
62544;BME280;48597;49.030;1.822;2023-09-19T00:40:19;100590.41;;;24.58;52.22
62544;BME280;48597;49.030;1.822;2023-09-19T00:42:47;100590.41;;;24.58;52.14
62544;BME280;48597;49.030;1.822;2023-09-19T00:45:14;100589.63;;;24.58;52.20
62544;BME280;48597;49.030;1.822;2023-09-19T00:47:42;100594.59;;;24.57;52.24
62544;BME280;48597;49.030;1.822;2023-09-19T00:50:09;100596.66;;;24.57;52.31
62544;BME280;48597;49.030;1.822;2023-09-19T00:52:36;100600.34;;;24.57;52.26
62544;BME280;48597;49.030;1.822;2023-09-19T00:55:09;100597.47;;;24.57;52.17
62544;BME280;48597;49.030;1.822;2023-09-19T00:57:41;100596.66;;;24.57;52.33
62544;BME280;48597;49.030;1.822;2023-09-19T01:00:08;100597.97;;;24.56;52.14
62544;BME280;48597;49.030;1.822;2023-09-19T01:02:41;100596.38;;;24.55;52.31
62544;BME280;48597;49.030;1.822;2023-09-19T01:05:08;100596.38;;;24.55;52.12
62544;BME280;48597;49.030;1.822;2023-09-19T01:07:33;100599.25;;;24.55;52.14
62544;BME280;48597;49.030;1.822;2023-09-19T01:10:00;100594.75;;;24.54;52.13
62544;BME280;48597;49.030;1.822;2023-09-19T01:12:36;100597.16;;;24.55;52.21
62544;BME280;48597;49.030;1.822;2023-09-19T01:15:21;100585.34;;;24.53;52.20
62544;BME280;48597;49.030;1.822;2023-09-19T01:20:57;100598.97;;;24.53;52.30
62544;BME280;48597;49.030;1.822;2023-09-19T01:32:08;100612.25;;;24.50;52.23
62544;BME280;48597;49.030;1.822;2023-09-19T01:34:56;100606.50;;;24.50;51.98
62544;BME280;48597;49.030;1.822;2023-09-19T01:37:24;100612.25;;;24.50;52.26
62544;BME280;48597;49.030;1.822;2023-09-19T01:39:59;100614.34;;;24.50;52.22
62544;BME280;48597;49.030;1.822;2023-09-19T01:42:39;100612.75;;;24.49;52.10
62544;BME280;48597;49.030;1.822;2023-09-19T01:45:23;100617.22;;;24.50;52.07
62544;BME280;48597;49.030;1.822;2023-09-19T01:47:54;100618.50;;;24.49;52.18
62544;BME280;48597;49.030;1.822;2023-09-19T01:50:34;100613.53;;;24.49;52.24
62544;BME280;48597;49.030;1.822;2023-09-19T01:53:21;100627.16;;;24.49;52.18
62544;BME280;48597;49.030;1.822;2023-09-19T01:55:50;100619.78;;;24.48;52.28
62544;BME280;48597;49.030;1.822;2023-09-19T01:58:37;100619.78;;;24.48;52.07
62544;BME280;48597;49.030;1.822;2023-09-19T02:01:05;100631.81;;;24.46;52.25
62544;BME280;48597;49.030;1.822;2023-09-19T02:03:34;100637.56;;;24.46;52.29
62544;BME280;48597;49.030;1.822;2023-09-19T02:06:00;100635.97;;;24.45;52.26
62544;BME280;48597;49.030;1.822;2023-09-19T02:08:26;100632.59;;;24.47;52.27
62544;BME280;48597;49.030;1.822;2023-09-19T02:10:53;100635.47;;;24.47;52.21
62544;BME280;48597;49.030;1.822;2023-09-19T02:13:19;100636.78;;;24.46;52.24
62544;BME280;48597;49.030;1.822;2023-09-19T02:15:45;100631.00;;;24.46;52.09
62544;BME280;48597;49.030;1.822;2023-09-19T02:18:11;100624.44;;;24.45;52.14
62544;BME280;48597;49.030;1.822;2023-09-19T02:20:37;100624.44;;;24.45;52.40
62544;BME280;48597;49.030;1.822;2023-09-19T02:23:03;100628.13;;;24.46;52.18
62544;BME280;48597;49.030;1.822;2023-09-19T02:25:28;100628.59;;;24.44;52.35
62544;BME280;48597;49.030;1.822;2023-09-19T02:27:54;100632.78;;;24.43;52.45
62544;BME280;48597;49.030;1.822;2023-09-19T02:30:19;100626.22;;;24.43;52.10
62544;BME280;48597;49.030;1.822;2023-09-19T02:32:51;100618.38;;;24.43;52.27
62544;BME280;48597;49.030;1.822;2023-09-19T02:35:16;100618.38;;;24.43;52.12
62544;BME280;48597;49.030;1.822;2023-09-19T02:37:45;100618.38;;;24.43;52.17
62544;BME280;48597;49.030;1.822;2023-09-19T02:40:10;100623.34;;;24.43;52.14
62544;BME280;48597;49.030;1.822;2023-09-19T02:42:47;100620.44;;;24.43;52.03
62544;BME280;48597;49.030;1.822;2023-09-19T02:45:15;100615.19;;;24.41;52.15
62544;BME280;48597;49.030;1.822;2023-09-19T02:47:42;100620.94;;;24.41;52.13
62544;BME280;48597;49.030;1.822;2023-09-19T02:50:08;100622.25;;;24.40;52.13
62544;BME280;48597;49.030;1.822;2023-09-19T02:52:35;100615.69;;;24.40;52.09
62544;BME280;48597;49.030;1.822;2023-09-19T02:55:01;100630.09;;;24.40;52.16
62544;BME280;48597;49.030;1.822;2023-09-19T02:57:26;100635.06;;;24.39;52.23
62544;BME280;48597;49.030;1.822;2023-09-19T02:59:53;100632.47;;;24.41;52.25
62544;BME280;48597;49.030;1.822;2023-09-19T03:02:19;100630.09;;;24.40;52.32
62544;BME280;48597;49.030;1.822;2023-09-19T03:04:45;100622.72;;;24.39;52.14
62544;BME280;48597;49.030;1.822;2023-09-19T03:07:12;100619.84;;;24.39;52.07
62544;BME280;48597;49.030;1.822;2023-09-19T03:09:37;100625.63;;;24.39;52.29
62544;BME280;48597;49.030;1.822;2023-09-19T03:12:03;100621.94;;;24.38;52.12
62544;BME280;48597;49.030;1.822;2023-09-19T03:14:29;100625.63;;;24.39;52.16
62544;BME280;48597;49.030;1.822;2023-09-19T03:17:00;100627.88;;;24.35;51.78
62544;BME280;48597;49.030;1.822;2023-09-19T03:19:25;100624.19;;;24.34;52.29
62544;BME280;48597;49.030;1.822;2023-09-19T03:21:51;100618.75;;;24.36;52.27
62544;BME280;48597;49.030;1.822;2023-09-19T03:24:17;100625.78;;;24.35;52.26
62544;BME280;48597;49.030;1.822;2023-09-19T03:26:42;100629.47;;;24.36;52.17
62544;BME280;48597;49.030;1.822;2023-09-19T03:29:07;100616.34;;;24.35;52.13
62544;BME280;48597;49.030;1.822;2023-09-19T03:31:35;100612.19;;;24.36;52.10
62544;BME280;48597;49.030;1.822;2023-09-19T03:34:02;100611.38;;;24.35;52.03
62544;BME280;48597;49.030;1.822;2023-09-19T03:36:29;100617.16;;;24.35;51.95
62544;BME280;48597;49.030;1.822;2023-09-19T03:38:54;100612.66;;;24.34;52.13
62544;BME280;48597;49.030;1.822;2023-09-19T03:41:20;100616.03;;;24.33;51.97
62544;BME280;48597;49.030;1.822;2023-09-19T03:43:45;100609.00;;;24.34;52.00
62544;BME280;48597;49.030;1.822;2023-09-19T03:46:10;100613.94;;;24.33;52.07
62544;BME280;48597;49.030;1.822;2023-09-19T03:48:37;100619.72;;;24.33;52.15
62544;BME280;48597;49.030;1.822;2023-09-19T03:51:03;100631.25;;;24.33;52.03
62544;BME280;48597;49.030;1.822;2023-09-19T03:53:28;100623.88;;;24.32;52.13
62544;BME280;48597;49.030;1.822;2023-09-19T03:55:54;100615.25;;;24.32;52.16
62544;BME280;48597;49.030;1.822;2023-09-19T03:58:20;100628.84;;;24.32;52.07
62544;BME280;48597;49.030;1.822;2023-09-19T04:00:45;100628.84;;;24.32;52.19
62544;BME280;48597;49.030;1.822;2023-09-19T04:03:11;100623.88;;;24.32;52.37
62544;BME280;48597;49.030;1.822;2023-09-19T04:05:45;100622.28;;;24.31;52.09
62544;BME280;48597;49.030;1.822;2023-09-19T04:08:10;100633.81;;;24.31;52.07
62544;BME280;48597;49.030;1.822;2023-09-19T04:10:36;100623.56;;;24.30;52.02
62544;BME280;48597;49.030;1.822;2023-09-19T04:13:01;100620.69;;;24.30;52.20
62544;BME280;48597;49.030;1.822;2023-09-19T04:15:26;100619.88;;;24.30;52.04
62544;BME280;48597;49.030;1.822;2023-09-19T04:17:52;100619.09;;;24.29;52.16
62544;BME280;48597;49.030;1.822;2023-09-19T04:20:19;100617.81;;;24.30;51.96
62544;BME280;48597;49.030;1.822;2023-09-19T04:22:50;100615.41;;;24.29;52.15
62544;BME280;48597;49.030;1.822;2023-09-19T04:25:16;100626.13;;;24.28;52.21
62544;BME280;48597;49.030;1.822;2023-09-19T04:27:41;100620.38;;;24.28;52.11
62544;BME280;48597;49.030;1.822;2023-09-19T04:30:07;100628.25;;;24.28;52.14
62544;BME280;48597;49.030;1.822;2023-09-19T04:32:40;100634.00;;;24.28;52.11
62544;BME280;48597;49.030;1.822;2023-09-19T04:35:10;100634.00;;;24.28;52.11
62544;BME280;48597;49.030;1.822;2023-09-19T04:37:40;100637.66;;;24.28;52.16
62544;BME280;48597;49.030;1.822;2023-09-19T04:40:10;100638.16;;;24.27;52.17
62544;BME280;48597;49.030;1.822;2023-09-19T04:42:41;100643.13;;;24.26;52.05
62544;BME280;48597;49.030;1.822;2023-09-19T04:45:08;100634.50;;;24.26;52.11
62544;BME280;48597;49.030;1.822;2023-09-19T04:47:37;100627.94;;;24.26;52.01
62544;BME280;48597;49.030;1.822;2023-09-19T04:50:08;100631.59;;;24.26;52.25
62544;BME280;48597;49.030;1.822;2023-09-19T04:52:41;100633.69;;;24.26;51.97
62544;BME280;48597;49.030;1.822;2023-09-19T04:55:12;100641.03;;;24.27;51.97
62544;BME280;48597;49.030;1.822;2023-09-19T04:57:42;100642.81;;;24.24;52.03
62544;BME280;48597;49.030;1.822;2023-09-19T05:00:07;100646.50;;;24.25;52.07
62544;BME280;48597;49.030;1.822;2023-09-19T05:02:37;100646.50;;;24.25;51.98
62544;BME280;48597;49.030;1.822;2023-09-19T05:05:03;100653.06;;;24.25;52.02
62544;BME280;48597;49.030;1.822;2023-09-19T05:07:30;100655.13;;;24.25;51.83
62544;BME280;48597;49.030;1.822;2023-09-19T05:09:55;100649.84;;;24.23;51.95
62544;BME280;48597;49.030;1.822;2023-09-19T05:12:21;100653.53;;;24.24;51.95
62544;BME280;48597;49.030;1.822;2023-09-19T05:14:47;100655.63;;;24.23;51.89
62544;BME280;48597;49.030;1.822;2023-09-19T05:17:13;100646.97;;;24.23;51.98
62544;BME280;48597;49.030;1.822;2023-09-19T05:19:42;100653.53;;;24.24;51.89
62544;BME280;48597;49.030;1.822;2023-09-19T05:22:08;100644.09;;;24.23;51.91
62544;BME280;48597;49.030;1.822;2023-09-19T05:24:33;100649.06;;;24.23;51.90
62544;BME280;48597;49.030;1.822;2023-09-19T05:26:58;100651.94;;;24.23;51.73
62544;BME280;48597;49.030;1.822;2023-09-19T05:29:24;100654.00;;;24.22;51.92
62544;BME280;48597;49.030;1.822;2023-09-19T05:31:50;100661.03;;;24.21;52.17
62544;BME280;48597;49.030;1.822;2023-09-19T05:34:16;100662.63;;;24.22;51.73
62544;BME280;48597;49.030;1.822;2023-09-19T05:36:43;100670.47;;;24.21;51.97
62544;BME280;48597;49.030;1.822;2023-09-19T05:39:08;100661.81;;;24.21;52.00
62544;BME280;48597;49.030;1.822;2023-09-19T05:41:35;100661.03;;;24.21;51.94
62544;BME280;48597;49.030;1.822;2023-09-19T05:44:02;100664.72;;;24.21;51.96
62544;BME280;48597;49.030;1.822;2023-09-19T05:46:28;100671.75;;;24.20;51.94
62544;BME280;48597;49.030;1.822;2023-09-19T05:48:55;100662.31;;;24.20;52.14
62544;BME280;48597;49.030;1.822;2023-09-19T05:51:22;100673.84;;;24.20;52.09
62544;BME280;48597;49.030;1.822;2023-09-19T05:53:47;100667.28;;;24.19;52.17
62544;BME280;48597;49.030;1.822;2023-09-19T05:56:14;100669.34;;;24.19;52.19
62544;BME280;48597;49.030;1.822;2023-09-19T05:58:40;100670.63;;;24.18;52.19
62544;BME280;48597;49.030;1.822;2023-09-19T06:01:08;100670.63;;;24.18;52.28
62544;BME280;48597;49.030;1.822;2023-09-19T06:03:34;100673.50;;;24.18;52.15
62544;BME280;48597;49.030;1.822;2023-09-19T06:06:03;100678.16;;;24.15;51.63
62544;BME280;48597;49.030;1.822;2023-09-19T06:08:31;100667.63;;;24.12;51.56
62544;BME280;48597;49.030;1.822;2023-09-19T06:10:57;100668.44;;;24.13;51.87
62544;BME280;48597;49.030;1.822;2023-09-19T06:13:22;100684.44;;;24.14;52.20
62544;BME280;48597;49.030;1.822;2023-09-19T06:15:50;100680.75;;;24.13;52.27
62544;BME280;48597;49.030;1.822;2023-09-19T06:18:17;100677.88;;;24.13;52.30
62544;BME280;48597;49.030;1.822;2023-09-19T06:20:46;100688.09;;;24.14;52.06
62544;BME280;48597;49.030;1.822;2023-09-19T06:23:14;100688.88;;;24.15;52.18
62544;BME280;48597;49.030;1.822;2023-09-19T06:25:40;100685.22;;;24.14;52.26
62544;BME280;48597;49.030;1.822;2023-09-19T06:28:06;100687.31;;;24.14;52.15
62544;BME280;48597;49.030;1.822;2023-09-19T06:30:33;100681.56;;;24.14;52.37
62544;BME280;48597;49.030;1.822;2023-09-19T06:33:00;100685.22;;;24.14;52.35
62544;BME280;48597;49.030;1.822;2023-09-19T06:35:26;100690.19;;;24.14;52.28
62544;BME280;48597;49.030;1.822;2023-09-19T06:37:52;100698.84;;;24.14;52.35
62544;BME280;48597;49.030;1.822;2023-09-19T06:40:18;100685.72;;;24.13;52.18
62544;BME280;48597;49.030;1.822;2023-09-19T06:42:45;100691.75;;;24.15;52.22
62544;BME280;48597;49.030;1.822;2023-09-19T06:45:14;100686.50;;;24.13;52.16
62544;BME280;48597;49.030;1.822;2023-09-19T06:47:47;100694.34;;;24.13;51.92
62544;BME280;48597;49.030;1.822;2023-09-19T06:50:19;100692.28;;;24.13;52.03
62544;BME280;48597;49.030;1.822;2023-09-19T06:52:50;100687.00;;;24.12;52.09
62544;BME280;48597;49.030;1.822;2023-09-19T06:55:17;100679.94;;;24.13;52.03
62544;BME280;48597;49.030;1.822;2023-09-19T06:57:44;100685.22;;;24.14;52.05
62544;BME280;48597;49.030;1.822;2023-09-19T07:00:11;100677.06;;;24.13;52.00
62544;BME280;48597;49.030;1.822;2023-09-19T07:05:22;100662.66;;;24.13;52.30
62544;BME280;48597;49.030;1.822;2023-09-19T07:07:47;100668.44;;;24.13;52.03
62544;BME280;48597;49.030;1.822;2023-09-19T07:10:12;100665.06;;;24.14;52.26
62544;BME280;48597;49.030;1.822;2023-09-19T07:12:38;100672.91;;;24.14;52.13
62544;BME280;48597;49.030;1.822;2023-09-19T07:15:04;100679.47;;;24.14;52.25
62544;BME280;48597;49.030;1.822;2023-09-19T07:17:31;100672.41;;;24.15;52.32
62544;BME280;48597;49.030;1.822;2023-09-19T07:20:01;100672.41;;;24.15;52.27
62544;BME280;48597;49.030;1.822;2023-09-19T07:22:32;100662.97;;;24.15;52.44
62544;BME280;48597;49.030;1.822;2023-09-19T07:24:58;100674.00;;;24.16;52.40
62544;BME280;48597;49.030;1.822;2023-09-19T07:27:23;100673.50;;;24.18;52.43
62544;BME280;48597;49.030;1.822;2023-09-19T07:29:48;100664.56;;;24.16;52.73
62544;BME280;48597;49.030;1.822;2023-09-19T07:32:14;100674.69;;;24.11;52.91
62544;BME280;48597;49.030;1.822;2023-09-19T07:34:42;100673.06;;;24.10;52.99
62544;BME280;48597;49.030;1.822;2023-09-19T07:37:09;100662.84;;;24.09;52.57
62544;BME280;48597;49.030;1.822;2023-09-19T07:39:35;100670.03;;;24.14;52.68
62544;BME280;48597;49.030;1.822;2023-09-19T07:42:00;100664.56;;;24.16;52.27
62544;BME280;48597;49.030;1.822;2023-09-19T07:44:26;100670.63;;;24.18;52.32
62544;BME280;48597;49.030;1.822;2023-09-19T07:46:52;100670.63;;;24.18;52.09
62544;BME280;48597;49.030;1.822;2023-09-19T07:49:18;100668.56;;;24.18;51.77
62544;BME280;48597;49.030;1.822;2023-09-19T07:51:44;100669.66;;;24.21;51.66
62544;BME280;48597;49.030;1.822;2023-09-19T07:54:12;100675.28;;;24.25;51.55
62544;BME280;48597;49.030;1.822;2023-09-19T07:56:38;100665.69;;;24.28;51.05
62544;BME280;48597;49.030;1.822;2023-09-19T07:59:03;100663.41;;;24.32;51.05
62544;BME280;48597;49.030;1.822;2023-09-19T08:01:29;100663.56;;;24.37;50.91
62544;BME280;48597;49.030;1.822;2023-09-19T08:03:54;100667.66;;;24.45;50.83
62544;BME280;48597;49.030;1.822;2023-09-19T08:06:19;100672.13;;;24.46;50.82
62544;BME280;48597;49.030;1.822;2023-09-19T08:08:45;100663.81;;;24.48;50.86
62544;BME280;48597;49.030;1.822;2023-09-19T08:11:11;100672.28;;;24.52;50.86
62544;BME280;48597;49.030;1.822;2023-09-19T08:13:41;100674.38;;;24.51;50.85
62544;BME280;48597;49.030;1.822;2023-09-19T08:16:10;100670.69;;;24.51;50.96
62544;BME280;48597;49.030;1.822;2023-09-19T08:18:37;100680.44;;;24.53;50.75
62544;BME280;48597;49.030;1.822;2023-09-19T08:21:05;100674.97;;;24.55;50.85
62544;BME280;48597;49.030;1.822;2023-09-19T08:23:35;100672.88;;;24.56;50.89
62544;BME280;48597;49.030;1.822;2023-09-19T08:26:01;100679.66;;;24.53;50.78
62544;BME280;48597;49.030;1.822;2023-09-19T08:28:31;100687.97;;;24.51;50.56
62544;BME280;48597;49.030;1.822;2023-09-19T08:31:01;100682.69;;;24.49;50.73
62544;BME280;48597;49.030;1.822;2023-09-19T08:33:27;100683.50;;;24.50;50.75
62544;BME280;48597;49.030;1.822;2023-09-19T08:35:55;100683.97;;;24.48;50.83
62544;BME280;48597;49.030;1.822;2023-09-19T08:38:21;100688.94;;;24.48;50.70
62544;BME280;48597;49.030;1.822;2023-09-19T08:40:46;100675.34;;;24.48;50.66
62544;BME280;48597;49.030;1.822;2023-09-19T08:43:12;100683.97;;;24.48;50.57
62544;BME280;48597;49.030;1.822;2023-09-19T08:45:38;100688.94;;;24.48;50.70
62544;BME280;48597;49.030;1.822;2023-09-19T08:48:23;100686.06;;;24.48;50.88
62544;BME280;48597;49.030;1.822;2023-09-19T08:51:26;100685.75;;;24.46;50.90
62544;BME280;48597;49.030;1.822;2023-09-19T08:53:59;100680.78;;;24.46;51.01
62544;BME280;48597;49.030;1.822;2023-09-19T08:56:29;100684.94;;;24.45;51.02
62544;BME280;48597;49.030;1.822;2023-09-19T08:58:57;100682.56;;;24.44;51.15
62544;BME280;48597;49.030;1.822;2023-09-19T09:01:27;100677.28;;;24.42;51.10
62544;BME280;48597;49.030;1.822;2023-09-19T09:03:54;100687.53;;;24.43;51.09
62544;BME280;48597;49.030;1.822;2023-09-19T09:06:20;100683.03;;;24.42;51.14
62544;BME280;48597;49.030;1.822;2023-09-19T09:08:46;100683.03;;;24.42;51.28
62544;BME280;48597;49.030;1.822;2023-09-19T09:11:13;100685.91;;;24.42;51.16
62544;BME280;48597;49.030;1.822;2023-09-19T09:13:39;100681.44;;;24.41;51.18
62544;BME280;48597;49.030;1.822;2023-09-19T09:16:07;100679.06;;;24.40;51.14
62544;BME280;48597;49.030;1.822;2023-09-19T09:18:33;100681.94;;;24.40;51.42
62544;BME280;48597;49.030;1.822;2023-09-19T09:20:59;100693.47;;;24.40;51.35
62544;BME280;48597;49.030;1.822;2023-09-19T09:23:26;100687.19;;;24.41;51.25
62544;BME280;48597;49.030;1.822;2023-09-19T09:25:55;100680.63;;;24.41;51.50
62544;BME280;48597;49.030;1.822;2023-09-19T09:28:27;100684.84;;;24.40;51.38
62544;BME280;48597;49.030;1.822;2023-09-19T09:30:54;100677.00;;;24.40;51.40
62544;BME280;48597;49.030;1.822;2023-09-19T09:33:21;100687.72;;;24.40;51.14
62544;BME280;48597;49.030;1.822;2023-09-19T09:35:56;100673.31;;;24.40;51.50
62544;BME280;48597;49.030;1.822;2023-09-19T09:38:27;100669.63;;;24.39;51.22
62544;BME280;48597;49.030;1.822;2023-09-19T09:40:55;100664.66;;;24.40;51.37
62544;BME280;48597;49.030;1.822;2023-09-19T09:43:39;100671.22;;;24.40;51.33
62544;BME280;48597;49.030;1.822;2023-09-19T09:46:14;100679.06;;;24.40;51.14
62544;BME280;48597;49.030;1.822;2023-09-19T09:48:47;100675.38;;;24.39;51.30
62544;BME280;48597;49.030;1.822;2023-09-19T09:51:33;100673.78;;;24.38;51.15
62544;BME280;48597;49.030;1.822;2023-09-19T09:54:12;100663.06;;;24.39;50.95
62544;BME280;48597;49.030;1.822;2023-09-19T09:56:55;100669.63;;;24.39;51.05
62544;BME280;48597;49.030;1.822;2023-09-19T09:59:44;100659.38;;;24.38;50.86
62544;BME280;48597;49.030;1.822;2023-09-19T10:02:17;100664.34;;;24.38;51.15
62544;BME280;48597;49.030;1.822;2023-09-19T10:04:58;100661.16;;;24.36;51.36
62544;BME280;48597;49.030;1.822;2023-09-19T10:07:31;100644.66;;;24.36;51.41
62544;BME280;48597;49.030;1.822;2023-09-19T10:10:06;100656.19;;;24.36;51.43
62544;BME280;48597;49.030;1.822;2023-09-19T10:12:45;100647.56;;;24.36;51.37
62544;BME280;48597;49.030;1.822;2023-09-19T10:15:17;100659.06;;;24.36;51.30
62544;BME280;48597;49.030;1.822;2023-09-19T10:17:46;100651.22;;;24.37;51.15
62544;BME280;48597;49.030;1.822;2023-09-19T10:20:16;100647.56;;;24.36;51.09
62544;BME280;48597;49.030;1.822;2023-09-19T10:23:04;100643.38;;;24.37;51.13
62544;BME280;48597;49.030;1.822;2023-09-19T10:25:39;100650.44;;;24.36;51.04
62544;BME280;48597;49.030;1.822;2023-09-19T10:28:10;100656.69;;;24.35;50.94
62544;BME280;48597;49.030;1.822;2023-09-19T10:30:45;100638.59;;;24.34;51.04
62544;BME280;48597;49.030;1.822;2023-09-19T10:33:13;100644.34;;;24.34;50.92
62544;BME280;48597;49.030;1.822;2023-09-19T10:35:42;100646.44;;;24.34;51.14
62544;BME280;48597;49.030;1.822;2023-09-19T10:38:10;100632.84;;;24.34;50.88
62544;BME280;48597;49.030;1.822;2023-09-19T10:40:37;100641.16;;;24.32;51.07
62544;BME280;48597;49.030;1.822;2023-09-19T10:43:11;100630.44;;;24.33;51.19
62544;BME280;48597;49.030;1.822;2023-09-19T10:45:38;100623.88;;;24.32;51.12
62544;BME280;48597;49.030;1.822;2023-09-19T10:48:05;100643.25;;;24.32;51.45
62544;BME280;48597;49.030;1.822;2023-09-19T10:50:43;100635.41;;;24.32;51.17
62544;BME280;48597;49.030;1.822;2023-09-19T10:53:11;100632.22;;;24.30;51.27
62544;BME280;48597;49.030;1.822;2023-09-19T10:55:37;100621.47;;;24.31;51.04
62544;BME280;48597;49.030;1.822;2023-09-19T10:58:05;100622.28;;;24.31;51.11
62544;BME280;48597;49.030;1.822;2023-09-19T11:00:54;100629.63;;;24.32;50.98
62544;BME280;48597;49.030;1.822;2023-09-19T11:03:21;100630.13;;;24.31;51.05
62544;BME280;48597;49.030;1.822;2023-09-19T11:06:17;100632.22;;;24.30;51.01
62544;BME280;48597;49.030;1.822;2023-09-19T11:09:01;100633.50;;;24.29;51.04
62544;BME280;48597;49.030;1.822;2023-09-19T11:14:15;100641.31;;;24.29;51.03
62544;BME280;48597;49.030;1.822;2023-09-19T11:22:23;100633.69;;;24.26;51.30
62544;BME280;48597;49.030;1.822;2023-09-19T11:24:51;100634.00;;;24.28;51.00
62544;BME280;48597;49.030;1.822;2023-09-19T11:27:17;100638.44;;;24.29;51.02
62544;BME280;48597;49.030;1.822;2023-09-19T11:29:43;100626.94;;;24.29;50.90
62544;BME280;48597;49.030;1.822;2023-09-19T11:32:09;100613.84;;;24.28;51.07
62544;BME280;48597;49.030;1.822;2023-09-19T11:34:42;100614.59;;;24.28;50.87
62544;BME280;48597;49.030;1.822;2023-09-19T11:39:37;100619.59;;;24.28;51.17
62544;BME280;48597;49.030;1.822;2023-09-19T11:45:06;100620.88;;;24.27;50.96
62544;BME280;48597;49.030;1.822;2023-09-19T11:47:32;100622.16;;;24.26;50.81
62544;BME280;48597;49.030;1.822;2023-09-19T11:50:01;100617.19;;;24.26;50.69
62544;BME280;48597;49.030;1.822;2023-09-19T11:52:28;100612.25;;;24.27;50.80
62544;BME280;48597;49.030;1.822;2023-09-19T11:55:00;100608.56;;;24.26;51.13
62544;BME280;48597;49.030;1.822;2023-09-19T11:57:27;100610.66;;;24.26;51.13
62544;BME280;48597;49.030;1.822;2023-09-19T11:59:55;100612.72;;;24.25;51.17
62544;BME280;48597;49.030;1.822;2023-09-19T12:02:47;100606.97;;;24.25;50.92
62544;BME280;48597;49.030;1.822;2023-09-19T12:05:28;100609.84;;;24.25;51.06
62544;BME280;48597;49.030;1.822;2023-09-19T12:07:54;100610.66;;;24.26;51.05
62544;BME280;48597;49.030;1.822;2023-09-19T12:10:19;100606.97;;;24.25;51.12
62544;BME280;48597;49.030;1.822;2023-09-19T12:12:48;100604.09;;;24.25;51.04
62544;BME280;48597;49.030;1.822;2023-09-19T12:15:14;100601.22;;;24.25;51.01
62544;BME280;48597;49.030;1.822;2023-09-19T12:17:41;100591.75;;;24.25;50.85
62544;BME280;48597;49.030;1.822;2023-09-19T12:20:08;100607.75;;;24.26;51.01
62544;BME280;48597;49.030;1.822;2023-09-19T12:22:45;100588.09;;;24.24;50.62
62544;BME280;48597;49.030;1.822;2023-09-19T12:25:12;100590.97;;;24.24;50.97
62544;BME280;48597;49.030;1.822;2023-09-19T12:27:48;100600.41;;;24.25;50.89
62544;BME280;48597;49.030;1.822;2023-09-19T12:30:27;100583.94;;;24.25;50.72
62544;BME280;48597;49.030;1.822;2023-09-19T12:32:53;100583.94;;;24.25;50.48
62544;BME280;48597;49.030;1.822;2023-09-19T12:35:33;100590.97;;;24.24;50.88
62544;BME280;48597;49.030;1.822;2023-09-19T12:38:02;100588.88;;;24.25;50.81
62544;BME280;48597;49.030;1.822;2023-09-19T12:40:29;100581.53;;;24.24;51.01
62544;BME280;48597;49.030;1.822;2023-09-19T12:42:58;100593.84;;;24.24;51.17
62544;BME280;48597;49.030;1.822;2023-09-19T12:45:24;100590.16;;;24.24;50.84
62544;BME280;48597;49.030;1.822;2023-09-19T12:53:57;100574.97;;;24.23;50.69
62544;BME280;48597;49.030;1.822;2023-09-19T12:56:22;100581.53;;;24.24;50.74
62544;BME280;48597;49.030;1.822;2023-09-19T12:58:50;100586.00;;;24.25;50.73
62544;BME280;48597;49.030;1.822;2023-09-19T13:01:16;100578.66;;;24.24;50.47
62544;BME280;48597;49.030;1.822;2023-09-19T13:03:42;100578.66;;;24.24;50.71
62544;BME280;48597;49.030;1.822;2023-09-19T13:06:07;100576.56;;;24.24;51.05
62544;BME280;48597;49.030;1.822;2023-09-19T13:08:37;100573.69;;;24.24;50.82
62544;BME280;48597;49.030;1.822;2023-09-19T13:11:16;100567.13;;;24.24;50.49
62544;BME280;48597;49.030;1.822;2023-09-19T13:16:19;100553.53;;;24.24;50.62
62544;BME280;48597;49.030;1.822;2023-09-19T13:18:52;100552.25;;;24.25;50.73
62544;BME280;48597;49.030;1.822;2023-09-19T13:21:34;100548.56;;;24.25;50.71
62544;BME280;48597;49.030;1.822;2023-09-19T13:26:45;100542.81;;;24.25;50.53
62544;BME280;48597;49.030;1.822;2023-09-19T13:29:11;100549.38;;;24.25;50.28
62544;BME280;48597;49.030;1.822;2023-09-19T13:31:36;100546.47;;;24.25;50.22
62544;BME280;48597;49.030;1.822;2023-09-19T13:34:06;100548.06;;;24.26;50.40
62544;BME280;48597;49.030;1.822;2023-09-19T13:36:32;100539.44;;;24.26;50.57
62544;BME280;48597;49.030;1.822;2023-09-19T13:38:57;100550.97;;;24.26;50.97